Time;durP1;ratioP1;P1;durP2;ratioP2;P2;SDS_P1;SDS_P2;PMS_P1;PMS_P2;Temp;Humidity;BMP_temperature;BMP_pressure;BME280_temperature;BME280_humidity;BME280_pressure;Samples;Min_cycle;Max_cycle;Signal;HPM_P1;HPM_P2
2022/07/05 00:00:49;;;;;;;2.95;2.10;;;12.70;1.00;;;;;;4974347;28;20027;-74
2022/07/05 00:03:15;;;;;;;2.30;2.05;;;12.70;1.00;;;;;;4974121;28;20031;-74
2022/07/05 00:05:40;;;;;;;2.65;2.45;;;12.60;1.00;;;;;;4961503;28;20466;-74
2022/07/05 00:08:07;;;;;;;4.00;2.25;;;12.60;1.00;;;;;;4967988;28;20032;-74
2022/07/05 00:10:34;;;;;;;2.17;1.98;;;12.60;1.00;;;;;;4955049;28;20476;-74
2022/07/05 00:13:00;;;;;;;2.55;2.35;;;12.50;1.00;;;;;;4954923;28;20023;-74
2022/07/05 00:15:26;;;;;;;2.83;2.25;;;12.40;9.00;;;;;;4955012;28;20061;-74
2022/07/05 00:17:52;;;;;;;2.47;2.28;;;12.40;9.50;;;;;;4954817;28;20374;-74
2022/07/05 00:20:18;;;;;;;3.55;2.17;;;12.30;1.00;;;;;;4956330;28;20027;-74
2022/07/05 00:22:43;;;;;;;3.28;2.35;;;12.30;1.00;;;;;;4974088;28;20044;-74
2022/07/05 00:25:09;;;;;;;4.18;2.50;;;12.20;1.00;;;;;;4961238;28;20020;-74
2022/07/05 00:27:35;;;;;;;2.53;2.30;;;12.10;1.00;;;;;;4973947;28;20034;-74
2022/07/05 00:30:01;;;;;;;2.13;1.92;;;12.00;1.00;;;;;;4974036;28;20094;-74
2022/07/05 00:32:26;;;;;;;3.50;2.22;;;12.00;23.30;;;;;;4950571;23;1243484;-72
2022/07/05 00:34:52;;;;;;;3.58;2.28;;;11.90;31.30;;;;;;4975483;28;20038;-72
2022/07/05 00:37:17;;;;;;;3.75;1.95;;;11.80;2.20;;;;;;4971311;28;20026;-71
2022/07/05 00:39:43;;;;;;;2.03;1.90;;;11.80;62.80;;;;;;4974531;28;20058;-71
2022/07/05 00:42:09;;;;;;;2.83;2.00;;;12.00;32.40;;;;;;4975266;28;20027;-71
2022/07/05 00:44:39;;;;;;;1.88;1.65;;;12.10;60.50;;;;;;4974527;28;20027;-72
2022/07/05 00:47:05;;;;;;;;;;;12.10;11.40;;;;;;4975375;28;20352;-71
2022/07/05 00:49:32;;;;;;;3.78;1.55;;;12.10;1.00;;;;;;4974547;28;19913;-72
2022/07/05 00:51:59;;;;;;;2.60;1.77;;;12.10;1.00;;;;;;4974477;28;20554;-72
2022/07/05 00:54:25;;;;;;;3.50;1.40;;;12.10;6.80;;;;;;4974357;28;20663;-72
2022/07/05 00:56:52;;;;;;;5.20;1.58;;;12.10;4.60;;;;;;4974181;28;20035;-72
2022/07/05 00:59:17;;;;;;;2.13;1.20;;;12.20;1.00;;;;;;4974254;28;20027;-72
2022/07/05 01:01:43;;;;;;;2.83;1.20;;;12.10;1.00;;;;;;4974194;28;20038;-72
2022/07/05 01:04:10;;;;;;;3.70;1.33;;;12.10;13.30;;;;;;4974110;28;20041;-72
2022/07/05 01:06:35;;;;;;;2.13;1.38;;;11.90;8.90;;;;;;4974895;28;20502;-72
2022/07/05 01:09:01;;;;;;;5.50;1.48;;;11.80;34.20;;;;;;4988425;28;20027;-72
2022/07/05 01:11:27;;;;;;;1.70;1.60;;;11.60;10.70;;;;;;4985166;28;20031;-72
2022/07/05 01:13:52;;;;;;;4.20;2.33;;;11.50;9.80;;;;;;4973962;28;20025;-72
2022/07/05 01:16:18;;;;;;;2.58;1.40;;;11.40;14.00;;;;;;4974029;28;20027;-72
2022/07/05 01:18:44;;;;;;;4.07;2.47;;;11.40;29.20;;;;;;4973838;28;20027;-72
2022/07/05 01:21:14;;;;;;;1.40;1.30;;;11.20;11.30;;;;;;4974242;28;20146;-72
2022/07/05 01:23:39;;;;;;;2.03;1.40;;;11.10;16.20;;;;;;4973796;28;20058;-72
2022/07/05 01:26:07;;;;;;;1.75;1.10;;;11.10;27.70;;;;;;4973876;28;20031;-72
2022/07/05 01:28:32;;;;;;;2.60;1.08;;;11.00;30.60;;;;;;4973737;28;20467;-72
2022/07/05 01:31:00;;;;;;;1.65;1.13;;;10.90;18.70;;;;;;4972553;28;20037;-72
2022/07/05 01:33:30;;;;;;;1.50;1.10;;;10.80;51.20;;;;;;4954903;28;20047;-72
2022/07/05 01:35:57;;;;;;;1.55;1.20;;;10.70;47.60;;;;;;4954278;28;20019;-72
2022/07/05 01:38:24;;;;;;;2.38;1.27;;;10.70;63.60;;;;;;4954303;28;20483;-72
2022/07/05 01:40:51;;;;;;;2.92;1.20;;;10.80;59.70;;;;;;4954792;28;20030;-72
2022/07/05 01:43:19;;;;;;;1.33;1.23;;;10.60;71.30;;;;;;4954476;28;20019;-72
2022/07/05 01:45:46;;;;;;;3.30;0.80;;;10.60;86.90;;;;;;4964274;28;20037;-72
2022/07/05 01:48:13;;;;;;;1.38;1.10;;;10.50;43.20;;;;;;4973589;28;20106;-72
2022/07/05 01:50:45;;;;;;;1.23;1.13;;;10.40;63.40;;;;;;4973529;28;20034;-72
2022/07/05 01:53:17;;;;;;;2.33;1.38;;;10.40;50.20;;;;;;4955702;28;20078;-72
2022/07/05 01:55:43;;;;;;;2.33;1.10;;;10.40;85.90;;;;;;4954361;28;20062;-72
2022/07/05 01:58:09;;;;;;;1.65;1.20;;;10.40;73.40;;;;;;4948736;28;20026;-72
2022/07/05 02:00:53;;;;;;;4.43;1.25;;;10.40;88.20;;;;;;4953542;28;20097;-72
2022/07/05 02:03:19;;;;;;;4.93;1.45;;;10.40;87.90;;;;;;4954400;28;20043;-72
2022/07/05 02:05:46;;;;;;;2.45;1.30;;;10.50;94.00;;;;;;4954398;28;20023;-72
2022/07/05 02:08:13;;;;;;;4.05;1.50;;;10.50;63.20;;;;;;4951572;28;20058;-72
2022/07/05 02:10:40;;;;;;;1.38;1.27;;;10.40;54.20;;;;;;4934880;29;20473;-72
2022/07/05 02:13:06;;;;;;;3.35;1.40;;;10.40;91.50;;;;;;4939904;28;20039;-72
2022/07/05 02:15:33;;;;;;;1.90;1.13;;;10.50;92.40;;;;;;4973311;28;20038;-72
2022/07/05 02:18:00;;;;;;;3.22;1.60;;;10.60;96.00;;;;;;4973280;28;20019;-72
2022/07/05 02:20:26;;;;;;;1.67;1.35;;;10.70;28.80;;;;;;4973281;28;20029;-72
2022/07/05 02:22:52;;;;;;;2.33;1.27;;;10.70;54.60;;;;;;4959327;28;20062;-72
2022/07/05 02:25:17;;;;;;;1.55;1.45;;;10.70;68.80;;;;;;4953859;28;20032;-72
2022/07/05 02:27:43;;;;;;;1.38;1.23;;;10.60;85.20;;;;;;4953925;28;20042;-72
2022/07/05 02:30:09;;;;;;;2.00;1.50;;;10.50;85.30;;;;;;4953865;28;20031;-72
2022/07/05 02:32:34;;;;;;;3.58;1.80;;;10.50;92.80;;;;;;4953549;28;20047;-72
2022/07/05 02:35:00;;;;;;;2.30;1.70;;;10.40;87.20;;;;;;4966168;28;20023;-71
2022/07/05 02:37:27;;;;;;;2.33;1.98;;;10.40;94.40;;;;;;4973156;28;20023;-72
2022/07/05 02:39:54;;;;;;;3.53;1.85;;;10.40;87.00;;;;;;4970715;28;20026;-72
2022/07/05 02:42:19;;;;;;;3.65;1.60;;;10.40;72.40;;;;;;4953650;28;20028;-72
2022/07/05 02:44:45;;;;;;;3.22;1.50;;;10.40;86.60;;;;;;4953757;28;20034;-72
2022/07/05 02:47:10;;;;;;;1.58;1.38;;;10.40;99.90;;;;;;4953638;28;20421;-72
2022/07/05 02:49:36;;;;;;;2.00;1.70;;;10.30;90.80;;;;;;4953680;28;20027;-72
2022/07/05 02:52:01;;;;;;;7.15;1.70;;;10.30;90.50;;;;;;4953581;28;20043;-72
2022/07/05 02:54:27;;;;;;;5.13;2.22;;;10.30;99.90;;;;;;4955315;28;20062;-72
2022/07/05 02:56:53;;;;;;;2.58;1.90;;;10.20;96.80;;;;;;4972836;28;20031;-72
2022/07/05 02:59:18;;;;;;;2.28;1.55;;;10.20;99.90;;;;;;4972894;28;20027;-72
2022/07/05 03:01:44;;;;;;;4.10;1.75;;;10.20;97.60;;;;;;4972661;28;20066;-72
2022/07/05 03:04:09;;;;;;;2.22;1.73;;;10.30;99.90;;;;;;4972777;28;20031;-72
2022/07/05 03:06:36;;;;;;;3.83;1.67;;;10.20;99.90;;;;;;4972752;28;20019;-72
2022/07/05 03:09:01;;;;;;;2.65;1.98;;;10.40;99.90;;;;;;4972816;28;20146;-71
2022/07/05 03:11:27;;;;;;;2.10;1.83;;;10.20;99.90;;;;;;4973070;28;20110;-72
2022/07/05 03:13:52;;;;;;;2.55;1.83;;;10.30;99.90;;;;;;4976148;28;20190;-72
2022/07/05 03:16:18;;;;;;;2.92;1.60;;;10.20;99.90;;;;;;4966624;28;20042;-72
2022/07/05 03:18:44;;;;;;;3.67;1.95;;;10.30;99.90;;;;;;4956649;28;20039;-72
2022/07/05 03:21:09;;;;;;;2.88;2.00;;;10.20;99.90;;;;;;4956697;28;20110;-72
2022/07/05 03:23:35;;;;;;;3.53;1.80;;;10.20;99.90;;;;;;4956801;28;20476;-71
2022/07/05 03:26:00;;;;;;;2.97;1.70;;;10.20;99.90;;;;;;4956770;28;20034;-72
2022/07/05 03:28:26;;;;;;;1.85;1.73;;;10.20;99.90;;;;;;4956670;28;20471;-72
2022/07/05 03:30:52;;;;;;;3.15;1.67;;;10.20;99.90;;;;;;4956620;28;20051;-72
2022/07/05 03:33:17;;;;;;;2.38;1.63;;;10.10;99.90;;;;;;4956495;28;20484;-72
2022/07/05 03:35:43;;;;;;;3.17;2.00;;;10.20;99.90;;;;;;4969141;28;20396;-71
2022/07/05 03:38:08;;;;;;;2.85;1.60;;;10.20;99.90;;;;;;4969576;28;20023;-71
2022/07/05 03:40:34;;;;;;;4.00;1.77;;;10.20;99.90;;;;;;4968107;28;20023;-72
2022/07/05 03:42:59;;;;;;;4.00;1.70;;;10.30;99.90;;;;;;4956313;28;20027;-72
2022/07/05 03:45:25;;;;;;;3.25;1.75;;;10.20;99.90;;;;;;4956576;28;20047;-72
2022/07/05 03:47:50;;;;;;;2.83;1.70;;;10.40;99.90;;;;;;4956388;28;20034;-72
2022/07/05 03:50:16;;;;;;;6.93;1.90;;;10.40;99.90;;;;;;4956284;28;20098;-72
2022/07/05 03:52:42;;;;;;;8.00;2.17;;;10.40;99.90;;;;;;4968974;28;20498;-72
2022/07/05 03:55:08;;;;;;;3.53;1.90;;;10.40;99.90;;;;;;4969214;28;20027;-72
2022/07/05 03:57:33;;;;;;;5.28;2.78;;;10.40;99.90;;;;;;4956227;28;20058;-72
2022/07/05 03:59:59;;;;;;;5.97;2.40;;;10.50;99.90;;;;;;4956217;28;20074;-71
2022/07/05 04:02:25;;;;;;;3.60;1.90;;;10.60;99.90;;;;;;4956262;28;20019;-72
2022/07/05 04:04:50;;;;;;;3.50;1.83;;;10.60;99.90;;;;;;4956361;28;20059;-72
2022/07/05 04:07:16;;;;;;;3.08;1.92;;;10.70;99.90;;;;;;4956344;28;20094;-72
2022/07/05 04:09:41;;;;;;;3.72;2.10;;;10.90;99.90;;;;;;4956178;28;20377;-72
2022/07/05 04:12:07;;;;;;;1.60;1.50;;;11.80;99.90;;;;;;4956001;28;20027;-72
2022/07/05 04:14:33;;;;;;;1.80;1.58;;;13.90;38.50;;;;;;4955897;28;20098;-72
2022/07/05 04:16:58;;;;;;;1.98;1.60;;;15.60;1.00;;;;;;4955783;28;20145;-72
2022/07/05 04:19:24;;;;;;;1.90;1.20;;;16.70;1.00;;;;;;4955757;28;20035;-72
2022/07/05 04:21:50;;;;;;;3.05;1.40;;;17.60;99.90;;;;;;4955770;28;20080;-72
2022/07/05 04:24:15;;;;;;;1.38;1.10;;;18.60;99.90;;;;;;4954743;28;20038;-72
2022/07/05 04:26:41;;;;;;;2.70;1.17;;;19.20;99.90;;;;;;4955663;28;20027;-72
2022/07/05 04:29:07;;;;;;;4.25;1.00;;;19.70;99.90;;;;;;4955498;28;20486;-73
2022/07/05 04:31:33;;;;;;;4.72;1.02;;;20.40;99.90;;;;;;4955160;28;20034;-73
2022/07/05 04:33:58;;;;;;;3.88;0.98;;;21.10;99.90;;;;;;4941127;28;20034;-73
2022/07/05 04:36:24;;;;;;;2.78;0.75;;;22.00;99.90;;;;;;4950998;28;20153;-73
2022/07/05 04:38:49;;;;;;;1.50;0.70;;;22.40;99.90;;;;;;4936231;29;20391;-72
2022/07/05 04:41:15;;;;;;;1.60;0.60;;;23.30;99.90;;;;;;4949319;29;20042;-73
2022/07/05 04:43:40;;;;;;;2.25;0.77;;;24.30;99.90;;;;;;4955591;28;20028;-73
2022/07/05 04:46:06;;;;;;;2.35;0.98;;;24.70;99.90;;;;;;4974712;28;20019;-73
2022/07/05 04:48:32;;;;;;;2.35;0.70;;;25.90;99.90;;;;;;4974659;28;20106;-73
2022/07/05 04:50:57;;;;;;;2.35;0.70;;;26.20;99.90;;;;;;4974781;28;20025;-72
2022/07/05 04:53:23;;;;;;;4.65;0.90;;;26.60;99.90;;;;;;4974487;28;20054;-73
2022/07/05 04:55:48;;;;;;;1.92;0.65;;;27.10;99.90;;;;;;4974566;28;20042;-73
2022/07/05 04:58:14;;;;;;;2.42;0.65;;;27.90;99.90;;;;;;4974409;28;20038;-73
2022/07/05 05:00:39;;;;;;;2.38;0.70;;;28.50;99.90;;;;;;4969342;28;20470;-73
2022/07/05 05:03:05;;;;;;;1.20;0.60;;;28.20;99.90;;;;;;4964617;28;20035;-73
2022/07/05 05:05:31;;;;;;;3.65;0.65;;;28.80;99.90;;;;;;4967023;28;20026;-73
2022/07/05 05:07:56;;;;;;;1.88;0.60;;;30.50;99.90;;;;;;4959046;28;20031;-73
2022/07/05 05:10:24;;;;;;;2.83;0.40;;;27.50;99.90;;;;;;4971699;28;20359;-73
2022/07/05 05:12:49;;;;;;;3.17;0.50;;;25.60;99.90;;;;;;4964125;28;20023;-73
2022/07/05 05:15:15;;;;;;;2.25;0.43;;;25.50;99.90;;;;;;4954926;28;20031;-73
2022/07/05 05:17:42;;;;;;;2.53;0.70;;;23.70;99.90;;;;;;4965297;28;20038;-73
2022/07/05 05:20:18;;;;;;;4.05;0.70;;;22.60;99.90;;;;;;4960640;28;20050;-73
2022/07/05 05:22:45;;;;;;;3.08;0.70;;;21.60;99.90;;;;;;4954725;28;20507;-73
2022/07/05 05:25:12;;;;;;;1.70;0.50;;;25.60;99.90;;;;;;4956884;28;20131;-73
2022/07/05 05:27:42;;;;;;;2.15;0.60;;;28.30;99.90;;;;;;4965446;28;20478;-73
2022/07/05 05:30:08;;;;;;;2.10;0.60;;;28.40;99.90;;;;;;4941515;28;20031;-73
2022/07/05 05:32:34;;;;;;;3.33;0.63;;;29.10;99.90;;;;;;4955182;28;20186;-73
2022/07/05 05:34:59;;;;;;;4.53;0.90;;;31.00;99.90;;;;;;4963162;28;20106;-73
2022/07/05 05:37:25;;;;;;;1.80;0.50;;;31.30;99.90;;;;;;4963202;28;20090;-73
2022/07/05 05:39:50;;;;;;;3.13;0.47;;;32.60;99.90;;;;;;4971488;28;20037;-73
2022/07/05 05:42:16;;;;;;;2.85;0.70;;;33.00;99.90;;;;;;4954775;28;20106;-73
2022/07/05 05:44:42;;;;;;;1.35;0.40;;;34.50;99.90;;;;;;4961046;28;20109;-73
2022/07/05 05:47:07;;;;;;;2.17;0.50;;;34.60;99.90;;;;;;4973841;28;20035;-73
2022/07/05 05:49:33;;;;;;;4.80;0.80;;;35.50;99.90;;;;;;4973889;28;20049;-73
2022/07/05 05:51:58;;;;;;;2.47;0.60;;;35.60;99.90;;;;;;4973862;28;20030;-73
2022/07/05 05:54:24;;;;;;;1.58;0.60;;;35.70;99.90;;;;;;4958052;28;20059;-73
2022/07/05 05:56:50;;;;;;;2.13;0.60;;;36.20;99.90;;;;;;4954557;28;20023;-73
2022/07/05 05:59:15;;;;;;;1.70;0.80;;;36.60;99.90;;;;;;4954476;28;20019;-73
2022/07/05 06:01:41;;;;;;;2.67;0.50;;;37.30;99.90;;;;;;4954565;28;20033;-74
2022/07/05 06:04:06;;;;;;;2.05;0.60;;;37.70;99.90;;;;;;4954292;28;20066;-74
2022/07/05 06:06:32;;;;;;;2.80;0.70;;;37.20;99.90;;;;;;4954234;28;20047;-74
2022/07/05 06:08:57;;;;;;;2.13;0.57;;;37.70;99.90;;;;;;4954124;28;20070;-74
2022/07/05 06:11:23;;;;;;;1.85;0.50;;;38.10;99.90;;;;;;4939403;28;20376;-74
2022/07/05 06:13:48;;;;;;;3.40;0.60;;;34.70;99.90;;;;;;4943760;29;20427;-74
2022/07/05 06:16:14;;;;;;;3.42;0.60;;;35.90;99.90;;;;;;4966988;28;20374;-74
2022/07/05 06:18:39;;;;;;;1.60;0.50;;;37.50;99.90;;;;;;4954159;28;20414;-74
2022/07/05 06:21:05;;;;;;;2.40;0.60;;;36.40;99.90;;;;;;4953979;28;20055;-74
2022/07/05 06:23:30;;;;;;;2.35;0.45;;;37.40;99.90;;;;;;4954117;28;20416;-74
2022/07/05 06:25:56;;;;;;;2.67;0.70;;;38.30;99.90;;;;;;4954036;28;20438;-74
2022/07/05 06:28:22;;;;;;;2.83;0.60;;;38.10;99.90;;;;;;4954215;28;20020;-74
2022/07/05 06:30:47;;;;;;;2.50;0.80;;;39.30;99.90;;;;;;4958229;28;20663;-74
2022/07/05 06:33:13;;;;;;;3.83;0.52;;;38.30;99.90;;;;;;4952775;28;20055;-74
2022/07/05 06:35:38;;;;;;;1.23;0.43;;;38.10;99.90;;;;;;4952393;28;20023;-74
2022/07/05 06:38:06;;;;;;;3.00;0.50;;;39.30;99.90;;;;;;4953550;28;20063;-74
2022/07/05 06:40:34;;;;;;;2.28;0.50;;;40.10;99.90;;;;;;4953223;28;20028;-71
2022/07/05 06:43:03;;;;;;;1.63;0.60;;;39.70;99.90;;;;;;4953233;28;20038;-72
2022/07/05 06:45:29;;;;;;;3.65;1.15;;;37.60;99.90;;;;;;4967806;28;20352;-71
2022/07/05 06:48:02;;;;;;;2.50;0.65;;;38.10;99.90;;;;;;4975032;28;20031;-72
2022/07/05 06:50:30;;;;;;;1.70;0.68;;;40.50;99.90;;;;;;4966675;28;20386;-71
2022/07/05 06:52:56;;;;;;;1.65;0.55;;;40.20;99.90;;;;;;4976217;28;20034;-72
2022/07/05 06:55:22;;;;;;;2.35;0.63;;;41.50;99.90;;;;;;4975949;28;20046;-72
2022/07/05 06:57:48;;;;;;;2.85;0.60;;;41.00;99.90;;;;;;4976001;28;20054;-72
2022/07/05 07:00:14;;;;;;;1.67;0.57;;;40.70;99.90;;;;;;4976031;28;20632;-74
2022/07/05 07:02:40;;;;;;;2.95;0.60;;;41.80;99.90;;;;;;4976036;28;20054;-74
2022/07/05 07:05:07;;;;;;;3.17;0.90;;;42.00;99.90;;;;;;4975929;28;20411;-74
2022/07/05 07:10:17;;;;;;;4.25;0.60;;;41.50;99.90;;;;;;4937666;29;20042;-72
2022/07/05 07:12:42;;;;;;;2.08;0.70;;;41.50;99.90;;;;;;4937535;28;20639;-72
2022/07/05 07:15:08;;;;;;;2.58;0.50;;;38.10;99.90;;;;;;4937409;29;20032;-72
2022/07/05 07:17:34;;;;;;;1.88;0.40;;;42.10;99.90;;;;;;4939948;28;20027;-72
2022/07/05 07:19:59;;;;;;;1.98;0.70;;;41.30;99.90;;;;;;4968172;28;20019;-73
2022/07/05 07:22:25;;;;;;;2.50;0.60;;;41.70;99.90;;;;;;4956262;28;20379;-72
2022/07/05 07:24:50;;;;;;;3.95;0.60;;;41.40;99.90;;;;;;4941503;28;20055;-72
2022/07/05 07:27:16;;;;;;;2.47;0.70;;;42.30;99.90;;;;;;4937256;29;20059;-72
2022/07/05 07:29:42;;;;;;;1.60;0.50;;;43.40;99.90;;;;;;4937227;29;20024;-72
2022/07/05 07:32:08;;;;;;;3.10;0.70;;;42.80;99.90;;;;;;4936887;29;20084;-72
2022/07/05 07:34:36;;;;;;;2.85;0.70;;;35.40;99.90;;;;;;4937028;29;20031;-72
2022/07/05 07:37:02;;;;;;;2.47;0.65;;;32.10;99.90;;;;;;4937183;29;20038;-72
2022/07/05 07:39:28;;;;;;;1.60;0.55;;;34.20;99.90;;;;;;4937198;29;20020;-71
2022/07/05 07:41:54;;;;;;;2.35;0.52;;;37.40;99.90;;;;;;4936697;29;20032;-72
2022/07/05 07:44:19;;;;;;;1.75;0.70;;;36.60;99.90;;;;;;4947959;28;20030;-72
2022/07/05 07:46:46;;;;;;;1.27;0.50;;;38.70;99.90;;;;;;4975369;28;20061;-71
2022/07/05 07:49:12;;;;;;;3.03;0.70;;;37.70;99.90;;;;;;4960415;28;20019;-72
2022/07/05 07:51:39;;;;;;;2.30;0.60;;;33.10;99.90;;;;;;4936797;29;20049;-72
2022/07/05 07:54:04;;;;;;;1.25;0.70;;;31.00;99.90;;;;;;4950804;29;20023;-71
2022/07/05 07:56:30;;;;;;;3.58;0.70;;;29.10;99.90;;;;;;4956036;28;20046;-71
2022/07/05 07:58:56;;;;;;;3.08;0.70;;;27.80;99.90;;;;;;4956040;28;20443;-72
2022/07/05 08:01:22;;;;;;;2.00;0.90;;;27.20;99.90;;;;;;4956234;28;20536;-71
2022/07/05 08:03:47;;;;;;;4.60;1.00;;;27.30;99.90;;;;;;4955276;28;20399;-71
2022/07/05 08:06:13;;;;;;;5.15;0.80;;;27.00;99.90;;;;;;4935772;28;20023;-71
2022/07/05 08:08:40;;;;;;;3.10;0.63;;;32.10;99.90;;;;;;4937118;28;20124;-72
2022/07/05 08:11:09;;;;;;;4.00;0.80;;;36.40;99.90;;;;;;4937053;29;20106;-72
2022/07/05 08:13:35;;;;;;;3.20;0.73;;;38.00;99.90;;;;;;4937031;29;20032;-72
2022/07/05 08:16:01;;;;;;;2.95;0.80;;;40.60;99.90;;;;;;4936868;29;20020;-72
2022/07/05 08:23:55;;;;;;;1.65;0.60;;;41.40;99.90;;;;;;4936963;29;20047;-72
2022/07/05 08:26:21;;;;;;;2.35;0.70;;;35.00;99.90;;;;;;4943885;29;20031;-72
2022/07/05 08:28:47;;;;;;;4.45;0.95;;;39.30;99.90;;;;;;4955297;28;20030;-71
2022/07/05 08:31:13;;;;;;;2.80;0.60;;;38.40;99.90;;;;;;4955471;28;20024;-70
2022/07/05 08:33:38;;;;;;;2.97;0.68;;;38.90;99.90;;;;;;4955403;28;20053;-70
2022/07/05 08:36:04;;;;;;;2.67;0.75;;;40.60;99.90;;;;;;4956004;28;20031;-70
2022/07/05 08:38:30;;;;;;;3.42;0.82;;;38.30;99.90;;;;;;4955429;28;20078;-71
2022/07/05 08:40:56;;;;;;;3.80;0.80;;;38.50;99.90;;;;;;4955684;28;20038;-71
2022/07/05 08:43:23;;;;;;;1.60;0.65;;;34.30;99.90;;;;;;4957861;28;20183;-72
2022/07/05 08:45:58;;;;;;;2.90;0.70;;;31.70;99.90;;;;;;4957341;28;20110;-71
2022/07/05 08:48:26;;;;;;;2.03;0.88;;;34.90;99.90;;;;;;4955474;28;20031;-72
2022/07/05 08:50:54;;;;;;;2.30;0.68;;;34.50;99.90;;;;;;4955820;28;20349;-71
2022/07/05 08:53:20;;;;;;;3.63;0.77;;;31.70;99.90;;;;;;4954855;28;20035;-71
2022/07/05 08:55:46;;;;;;;1.77;0.80;;;34.80;99.90;;;;;;4935555;29;20028;-71
2022/07/05 08:58:12;;;;;;;4.30;0.95;;;36.90;99.90;;;;;;4936293;29;20102;-71
2022/07/05 09:00:39;;;;;;;2.72;0.80;;;34.80;99.90;;;;;;4961967;28;20054;-72
2022/07/05 09:03:05;;;;;;;2.40;0.70;;;33.10;99.90;;;;;;4955660;28;20323;-72
2022/07/05 09:05:54;;;;;;;3.15;0.70;;;30.80;99.90;;;;;;4974436;28;20038;-72
2022/07/05 09:08:21;;;;;;;2.85;0.73;;;31.10;99.90;;;;;;4968617;28;20023;-71
2022/07/05 09:10:46;;;;;;;2.25;0.65;;;31.90;99.90;;;;;;4954627;28;20031;-71
2022/07/05 09:13:12;;;;;;;1.65;0.63;;;30.30;99.90;;;;;;4954928;28;20027;-72
2022/07/05 09:15:39;;;;;;;2.53;0.50;;;28.50;99.90;;;;;;4955290;28;20027;-72
2022/07/05 09:18:05;;;;;;;1.58;0.70;;;28.90;99.90;;;;;;4954725;28;20495;-73
2022/07/05 09:20:30;;;;;;;1.88;0.70;;;28.00;99.90;;;;;;4955153;28;20034;-73
2022/07/05 09:22:56;;;;;;;1.65;0.82;;;26.90;99.90;;;;;;4954797;28;20042;-72
2022/07/05 09:25:32;;;;;;;1.77;0.80;;;26.70;99.90;;;;;;4954980;28;20055;-73
2022/07/05 09:28:00;;;;;;;2.08;0.75;;;26.60;99.90;;;;;;4954863;28;20027;-72
2022/07/05 09:30:29;;;;;;;1.25;0.60;;;27.20;99.90;;;;;;4954744;28;20510;-72
2022/07/05 09:33:12;;;;;;;1.88;0.60;;;28.00;99.90;;;;;;4953520;28;20075;-72
2022/07/05 09:35:43;;;;;;;3.63;0.70;;;31.50;99.90;;;;;;4935579;29;20476;-73
2022/07/05 09:38:20;;;;;;;2.20;0.60;;;37.60;99.90;;;;;;4935412;29;20024;-72
2022/07/05 09:40:54;;;;;;;3.85;0.80;;;34.20;99.90;;;;;;4935347;29;20519;-72
2022/07/05 09:43:21;;;;;;;2.70;0.70;;;31.10;99.90;;;;;;4935198;29;20032;-73
2022/07/05 09:45:56;;;;;;;2.35;0.65;;;30.20;99.90;;;;;;4965791;28;20495;-72
2022/07/05 09:48:22;;;;;;;1.65;0.65;;;33.70;99.90;;;;;;4954644;28;20035;-72
2022/07/05 09:50:49;;;;;;;3.38;0.77;;;38.00;99.90;;;;;;4954454;28;20704;-72
2022/07/05 09:53:15;;;;;;;4.55;0.68;;;40.00;99.90;;;;;;4954472;28;20114;-72
2022/07/05 09:55:41;;;;;;;1.55;0.45;;;39.60;99.90;;;;;;4954323;28;20147;-72
2022/07/05 09:58:07;;;;;;;3.53;0.60;;;37.70;99.90;;;;;;4954636;28;20024;-73
2022/07/05 10:00:32;;;;;;;3.40;0.60;;;40.10;99.90;;;;;;4954820;28;20055;-72
2022/07/05 10:03:00;;;;;;;2.20;0.40;;;40.70;99.90;;;;;;4948914;28;20074;-72
2022/07/05 10:05:31;;;;;;;1.88;0.50;;;43.00;99.90;;;;;;4935127;29;20051;-72
2022/07/05 10:07:58;;;;;;;2.33;0.50;;;36.10;99.90;;;;;;4935149;29;20035;-72
2022/07/05 10:10:32;;;;;;;1.15;0.40;;;37.70;99.90;;;;;;4934904;29;20031;-72
2022/07/05 10:13:01;;;;;;;5.57;0.75;;;40.40;99.90;;;;;;4934975;29;20118;-72
2022/07/05 10:15:31;;;;;;;;;;;39.40;99.90;;;;;;4935294;29;20044;-72
2022/07/05 10:18:02;;;;;;;1.80;0.50;;;36.60;99.90;;;;;;4941524;28;20004;-72
2022/07/05 10:20:42;;;;;;;1.23;0.57;;;39.30;99.90;;;;;;4953973;28;20024;-72
2022/07/05 10:23:16;;;;;;;1.23;0.50;;;36.90;99.90;;;;;;4957061;28;20047;-72
2022/07/05 10:25:44;;;;;;;3.03;0.73;;;36.30;99.90;;;;;;4958030;28;20039;-72
2022/07/05 10:28:10;;;;;;;2.85;0.60;;;33.30;99.90;;;;;;4957874;28;20356;-73
2022/07/05 10:30:37;;;;;;;2.70;0.73;;;32.10;99.90;;;;;;4957285;28;20063;-72
2022/07/05 10:33:04;;;;;;;2.35;0.70;;;29.50;99.90;;;;;;4957182;28;20106;-72
2022/07/05 10:35:30;;;;;;;2.40;0.65;;;28.20;99.90;;;;;;4952750;28;20027;-72
2022/07/05 10:37:56;;;;;;;2.47;0.70;;;27.40;99.90;;;;;;4957826;28;20031;-72
2022/07/05 10:40:22;;;;;;;4.70;0.90;;;26.30;99.90;;;;;;4957509;28;20031;-72
2022/07/05 10:43:01;;;;;;;2.55;0.70;;;25.60;99.90;;;;;;4957531;28;20032;-71
2022/07/05 10:45:36;;;;;;;4.15;0.88;;;25.60;99.90;;;;;;4972038;28;20042;-71
2022/07/05 10:48:21;;;;;;;1.58;0.77;;;25.30;99.90;;;;;;4976835;28;20470;-71
2022/07/05 10:51:13;;;;;;;2.05;0.77;;;25.30;99.90;;;;;;4943428;29;20136;-71
2022/07/05 10:53:39;;;;;;;6.20;0.85;;;24.70;99.90;;;;;;4958064;28;20027;-71
2022/07/05 10:56:04;;;;;;;2.38;0.68;;;24.40;99.90;;;;;;4957423;28;20027;-71
2022/07/05 10:58:42;;;;;;;2.97;0.75;;;24.40;99.90;;;;;;4957262;28;20046;-71
2022/07/05 11:01:20;;;;;;;2.88;0.60;;;24.20;99.90;;;;;;4957115;28;20081;-71
2022/07/05 11:04:00;;;;;;;3.28;0.88;;;23.90;99.90;;;;;;4957252;28;20034;-71
2022/07/05 11:06:38;;;;;;;1.33;0.77;;;24.10;99.90;;;;;;4966827;28;20475;-70
2022/07/05 11:09:04;;;;;;;3.42;0.60;;;24.10;99.90;;;;;;4957253;28;20027;-70
2022/07/05 11:11:31;;;;;;;2.80;0.57;;;24.70;99.90;;;;;;4957022;28;20415;-71
2022/07/05 11:13:58;;;;;;;1.90;0.60;;;24.60;99.90;;;;;;4968523;28;20023;-70
2022/07/05 11:16:26;;;;;;;0.70;0.70;;;26.20;99.90;;;;;;4976323;28;20103;-71
2022/07/05 11:19:04;;;;;;;3.13;0.65;;;26.30;99.90;;;;;;4974689;28;20081;-71
2022/07/05 11:21:29;;;;;;;4.22;1.27;;;25.10;99.90;;;;;;4956717;28;20066;-71
2022/07/05 11:24:20;;;;;;;2.40;0.70;;;26.10;99.90;;;;;;4957277;28;20062;-70
2022/07/05 11:26:48;;;;;;;2.08;0.70;;;26.80;99.90;;;;;;4956675;28;20046;-70
2022/07/05 11:29:38;;;;;;;1.10;0.63;;;26.80;99.90;;;;;;4968421;28;20050;-70
2022/07/05 11:32:08;;;;;;;1.10;0.50;;;26.60;99.90;;;;;;4967754;28;20050;-70
2022/07/05 11:34:35;;;;;;;4.93;0.82;;;26.50;99.90;;;;;;4956545;28;20035;-70
2022/07/05 11:37:13;;;;;;;2.58;0.80;;;26.60;99.90;;;;;;4957252;28;20023;-70
2022/07/05 11:39:40;;;;;;;2.58;0.70;;;26.40;99.90;;;;;;4956728;28;20074;-70
2022/07/05 11:42:07;;;;;;;3.33;0.75;;;26.40;99.90;;;;;;4957748;28;20046;-71
2022/07/05 11:44:34;;;;;;;3.15;0.85;;;26.90;99.90;;;;;;4975560;28;20055;-70
2022/07/05 11:47:00;;;;;;;3.35;0.90;;;27.20;99.90;;;;;;4974540;28;20438;-70
2022/07/05 11:49:26;;;;;;;1.67;0.82;;;28.30;99.90;;;;;;4956362;28;20040;-70
2022/07/05 11:51:59;;;;;;;3.63;0.70;;;28.00;99.90;;;;;;4969499;28;20038;-71
2022/07/05 11:54:28;;;;;;;3.13;1.00;;;27.50;99.90;;;;;;4956330;28;20027;-71
2022/07/05 11:56:54;;;;;;;2.20;0.80;;;27.50;99.90;;;;;;4967643;28;20541;-71
2022/07/05 11:59:21;;;;;;;3.08;0.80;;;27.30;99.90;;;;;;4956156;28;20086;-71
2022/07/05 12:01:47;;;;;;;1.90;0.50;;;27.40;99.90;;;;;;4957086;28;20364;-71
2022/07/05 12:04:30;;;;;;;1.52;0.60;;;27.80;99.90;;;;;;4967813;28;20029;-71
2022/07/05 12:06:57;;;;;;;1.75;0.50;;;26.80;99.90;;;;;;4956312;28;20041;-71
2022/07/05 12:09:28;;;;;;;1.38;0.73;;;26.00;99.90;;;;;;4955884;28;20039;-71
2022/07/05 12:14:51;;;;;;;1.70;0.70;;;26.30;99.90;;;;;;4956194;29;20148;-71
2022/07/05 12:17:20;;;;;;;2.55;0.70;;;26.10;99.90;;;;;;4955820;28;20059;-72
2022/07/05 12:19:46;;;;;;;2.38;0.77;;;26.20;99.90;;;;;;4955717;28;20031;-71
2022/07/05 12:22:12;;;;;;;1.75;0.90;;;25.40;99.90;;;;;;4955584;28;20039;-72
2022/07/05 12:24:38;;;;;;;1.60;1.08;;;25.30;99.90;;;;;;4956048;29;20086;-72
2022/07/05 12:27:05;;;;;;;3.67;0.80;;;25.90;99.90;;;;;;4955720;28;20027;-72
2022/07/05 12:29:31;;;;;;;5.10;0.88;;;26.00;99.90;;;;;;4955629;28;20531;-72
2022/07/05 12:32:08;;;;;;;2.42;0.77;;;25.90;99.90;;;;;;4955201;28;20606;-72
2022/07/05 12:34:34;;;;;;;1.58;0.73;;;26.60;99.90;;;;;;4955886;28;20521;-72
2022/07/05 12:37:02;;;;;;;5.35;1.00;;;26.40;99.90;;;;;;4955373;28;20023;-72
2022/07/05 12:39:28;;;;;;;1.92;0.90;;;27.20;99.90;;;;;;4955412;28;20475;-72
2022/07/05 12:41:55;;;;;;;2.75;0.77;;;26.70;99.90;;;;;;4955275;28;20050;-72
2022/07/05 12:44:21;;;;;;;2.15;0.80;;;26.10;99.90;;;;;;4960389;28;20057;-72
2022/07/05 12:46:49;;;;;;;2.38;0.80;;;26.20;99.90;;;;;;4974664;28;20050;-72
2022/07/05 12:49:15;;;;;;;2.70;0.80;;;25.80;99.90;;;;;;4974791;28;20539;-72
2022/07/05 12:51:42;;;;;;;3.85;1.00;;;25.50;99.90;;;;;;4974482;28;20066;-72
2022/07/05 13:00:03;;;;;;;3.25;0.90;;;25.60;99.90;;;;;;4955523;29;20098;-72
2022/07/05 13:02:36;;;;;;;1.73;0.77;;;25.80;99.90;;;;;;4954754;28;20042;-72
2022/07/05 13:05:01;;;;;;;1.92;0.88;;;25.90;99.90;;;;;;4956491;28;20030;-72